createdAt,value
2019-06-08T00:02:26.463Z,95142.44
2019-06-08T00:04:56.775Z,95135.15
2019-06-08T00:07:27.428Z,95134.88
2019-06-08T00:09:57.808Z,95138.58
2019-06-08T00:12:28.100Z,95144.89
2019-06-08T00:14:58.466Z,95143.42
2019-06-08T00:17:37.951Z,95141.98
2019-06-08T00:20:01.222Z,95148.35
2019-06-08T00:22:31.591Z,95146.27
2019-06-08T00:25:02.394Z,95144.19
2019-06-08T00:27:32.771Z,95151.75
2019-06-08T00:30:03.621Z,95145.02
2019-06-08T00:32:34.158Z,95140.44
2019-06-08T00:35:04.793Z,95136.73
2019-06-08T00:37:35.500Z,95139.86
2019-06-08T00:40:06.412Z,95130.82
2019-06-08T00:42:36.772Z,95138.45
2019-06-08T00:45:07.436Z,95124.82
2019-06-08T00:47:47.666Z,95127.61
2019-06-08T00:50:10.991Z,95126.53
2019-06-08T00:52:41.607Z,95127.93
2019-06-08T00:55:11.968Z,95127.43
2019-06-08T00:57:42.433Z,95117.82
2019-06-08T01:00:13.417Z,95120.66
2019-06-08T01:02:43.849Z,95118.05
2019-06-08T01:05:14.443Z,95123.45
2019-06-08T01:07:44.705Z,95119.96
2019-06-08T01:10:15.819Z,95126.32
2019-06-08T01:12:46.207Z,95131.59
2019-06-08T01:15:23.813Z,95125.41
2019-06-08T01:18:02.008Z,95131.89
2019-06-08T01:20:23.525Z,95125.08
2019-06-08T01:22:54.172Z,95128.08
2019-06-08T01:25:25.713Z,95129.80
2019-06-08T01:27:56.541Z,95123.13
2019-06-08T01:30:28.495Z,95125.97
2019-06-08T01:32:58.841Z,95127.32
2019-06-08T01:35:30.886Z,95130.83
2019-06-08T01:38:01.373Z,95129.93
2019-06-08T01:40:31.682Z,95120.36
2019-06-08T01:43:02.145Z,95120.69
2019-06-08T01:45:33.452Z,94893.25
2019-06-08T01:48:19.461Z,95125.94
2019-06-08T01:50:37.894Z,95122.27
2019-06-08T01:53:08.629Z,95126.77
2019-06-08T01:55:38.936Z,95133.66
2019-06-08T01:58:09.239Z,95136.64
2019-06-08T02:00:41.601Z,95140.16
2019-06-08T02:03:12.181Z,95141.50
2019-06-08T02:05:42.927Z,95156.98
2019-06-08T02:08:13.254Z,95144.00
2019-06-08T02:10:43.560Z,95140.86
2019-06-08T02:13:13.925Z,95133.52
2019-06-08T02:15:44.351Z,95137.44
2019-06-08T02:18:14.658Z,95129.09
2019-06-08T02:20:45.452Z,95131.41
2019-06-08T02:23:15.903Z,95131.13
2019-06-08T02:25:46.273Z,95134.34
2019-06-08T02:28:16.917Z,95134.41
2019-06-08T02:30:47.544Z,95129.90
2019-06-08T02:33:17.815Z,95129.41
2019-06-08T02:35:48.575Z,95137.85
2019-06-08T02:38:18.900Z,95133.59
2019-06-08T02:40:49.315Z,95133.59
2019-06-08T02:43:19.725Z,95132.23
2019-06-08T02:45:50.024Z,95131.44
2019-06-08T02:48:20.681Z,95136.47
2019-06-08T02:50:54.474Z,95141.26
2019-06-08T02:53:26.193Z,95133.56
2019-06-08T02:55:57.230Z,95146.75
2019-06-08T02:58:29.237Z,95147.84
2019-06-08T03:00:59.913Z,95150.55
2019-06-08T03:03:33.813Z,95152.91
2019-06-08T03:06:05.693Z,95157.16
2019-06-08T03:08:41.273Z,95164.80
2019-06-08T03:11:11.006Z,95160.05
2019-06-08T03:13:42.508Z,95152.39
2019-06-08T03:16:13.284Z,95149.47
2019-06-08T03:18:44.005Z,95152.11
2019-06-08T03:21:14.462Z,95048.33
2019-06-08T03:23:45.098Z,95144.72
2019-06-08T03:26:15.699Z,95153.71
2019-06-08T03:28:46.001Z,95154.77
2019-06-08T03:31:16.332Z,95157.14
2019-06-08T03:33:54.398Z,95158.98
2019-06-08T03:36:19.046Z,95158.98
2019-06-08T03:38:49.326Z,95162.16
2019-06-08T03:41:19.689Z,95154.00
2019-06-08T03:43:50.196Z,95156.08
2019-06-08T03:46:20.827Z,95164.23
2019-06-08T03:48:52.319Z,95165.02
2019-06-08T03:51:22.716Z,95168.45
2019-06-08T03:53:53.269Z,95166.08
2019-06-08T03:56:23.572Z,95172.34
2019-06-08T03:58:53.960Z,95176.80
2019-06-08T04:01:24.571Z,95170.44
2019-06-08T04:03:59.581Z,95169.37
2019-06-08T04:06:27.191Z,95173.54
2019-06-08T04:08:57.805Z,95175.84
2019-06-08T04:11:28.133Z,95169.21
2019-06-08T04:13:58.528Z,95166.73
2019-06-08T04:16:28.852Z,95170.66
2019-06-08T04:18:59.164Z,95170.82
2019-06-08T04:21:29.582Z,95169.11
2019-06-08T04:24:00.100Z,95162.95
2019-06-08T04:26:30.550Z,95167.17
2019-06-08T04:29:01.263Z,95166.68
2019-06-08T04:31:31.983Z,95158.85
2019-06-08T04:34:02.257Z,95165.84
2019-06-08T04:36:33.081Z,95162.81
2019-06-08T04:39:03.567Z,95169.20
2019-06-08T04:41:33.880Z,95167.94
2019-06-08T04:44:04.589Z,95170.37
2019-06-08T04:46:34.986Z,95174.21
2019-06-08T04:49:05.923Z,95067.41
2019-06-08T04:51:36.482Z,95173.75
2019-06-08T04:54:06.761Z,95172.61
2019-06-08T04:56:38.601Z,95176.73
2019-06-08T04:59:09.204Z,95171.73
2019-06-08T05:01:40.876Z,95173.69
2019-06-08T05:04:11.361Z,95173.00
2019-06-08T05:06:42.959Z,95177.77
2019-06-08T05:09:13.282Z,95176.42
2019-06-08T05:11:45.199Z,95179.72
2019-06-08T05:14:16.072Z,95179.55
2019-06-08T05:16:47.433Z,95183.63
2019-06-08T05:19:18.123Z,95179.17
2019-06-08T05:21:49.861Z,95192.13
2019-06-08T05:24:20.440Z,95194.63
2019-06-08T05:26:51.308Z,95190.73
2019-06-08T05:29:21.590Z,95187.30
2019-06-08T05:31:51.956Z,95184.95
2019-06-08T05:34:22.447Z,95188.64
2019-06-08T05:36:52.740Z,95194.78
2019-06-08T05:39:23.035Z,95198.70
2019-06-08T05:41:53.693Z,95195.14
2019-06-08T05:44:24.198Z,95201.45
2019-06-08T05:46:54.673Z,95196.22
2019-06-08T05:49:25.343Z,95201.11
2019-06-08T05:51:56.150Z,95209.87
2019-06-08T05:54:26.480Z,95210.33
2019-06-08T05:56:57.246Z,95215.51
2019-06-08T05:59:27.870Z,95215.58
2019-06-08T06:01:58.179Z,95221.08
2019-06-08T06:04:28.619Z,95226.97
2019-06-08T06:06:59.101Z,95221.67
2019-06-08T06:09:29.369Z,95223.47
2019-06-08T06:11:59.692Z,95225.18
2019-06-08T06:14:30.446Z,95220.96
2019-06-08T06:17:00.744Z,95216.89
2019-06-08T06:19:31.026Z,95226.48
2019-06-08T06:22:01.532Z,95212.12
2019-06-08T06:24:32.100Z,95209.19
2019-06-08T06:27:02.793Z,95212.99
2019-06-08T06:29:33.104Z,95211.66
2019-06-08T06:32:03.428Z,95210.14
2019-06-08T06:34:34.068Z,95215.76
2019-06-08T06:37:04.603Z,95215.27
2019-06-08T06:39:34.890Z,95221.84
2019-06-08T06:42:05.623Z,95221.94
2019-06-08T06:44:36.130Z,95224.36
2019-06-08T06:47:06.426Z,95218.97
2019-06-08T06:49:38.434Z,95218.52
2019-06-08T06:52:09.225Z,95219.41
2019-06-08T06:54:40.065Z,95217.23
2019-06-08T06:57:10.362Z,95213.60
2019-06-08T06:59:40.645Z,95219.41
2019-06-08T07:02:11.417Z,95214.83
2019-06-08T07:04:41.750Z,95219.89
2019-06-08T07:07:12.018Z,95214.36
2019-06-08T07:09:42.735Z,95216.42
2019-06-08T07:12:13.284Z,95216.55
2019-06-08T07:14:44.895Z,95212.41
2019-06-08T07:17:15.578Z,95216.84
2019-06-08T07:19:46.415Z,95218.60
2019-06-08T07:22:17.720Z,95219.73
2019-06-08T07:24:48.227Z,95218.80
2019-06-08T07:27:18.526Z,95216.97
2019-06-08T07:29:49.179Z,95209.56
2019-06-08T07:32:19.633Z,95214.90
2019-06-08T07:34:51.272Z,95206.74
2019-06-08T07:37:21.894Z,95200.49
2019-06-08T07:39:53.643Z,95200.86
2019-06-08T07:42:24.208Z,95201.77
2019-06-08T07:44:55.070Z,95203.03
2019-06-08T07:47:26.006Z,95195.14
2019-06-08T07:49:56.488Z,95198.48
2019-06-08T07:52:26.906Z,95195.11
2019-06-08T07:54:58.614Z,95189.91
2019-06-08T07:57:28.939Z,95196.29
2019-06-08T08:00:00.182Z,95202.30
2019-06-08T08:02:31.030Z,95200.22
2019-06-08T08:05:01.543Z,95194.76
2019-06-08T08:07:31.911Z,95203.08
2019-06-08T08:10:02.793Z,95195.02
2019-06-08T08:12:33.509Z,95192.83
2019-06-08T08:15:04.174Z,95191.40
2019-06-08T08:17:35.983Z,95189.28
2019-06-08T08:20:07.009Z,95188.34
2019-06-08T08:22:38.176Z,95184.59
2019-06-08T08:25:08.939Z,95193.69
2019-06-08T08:27:39.602Z,95187.80
2019-06-08T08:30:10.318Z,95186.38
2019-06-08T08:32:40.930Z,95176.72
2019-06-08T08:35:11.469Z,95181.16
2019-06-08T08:37:42.059Z,95177.67
2019-06-08T08:40:13.696Z,95186.92
2019-06-08T08:42:43.999Z,95195.00
2019-06-08T08:45:18.126Z,95186.94
2019-06-08T08:47:48.568Z,95190.39
2019-06-08T08:50:20.185Z,95184.35
2019-06-08T08:52:51.282Z,95178.34
2019-06-08T08:55:23.171Z,95177.39
2019-06-08T08:57:54.784Z,95182.58
2019-06-08T09:00:25.105Z,95171.21
2019-06-08T09:03:19.036Z,95174.89
2019-06-08T09:05:28.128Z,95175.11
2019-06-08T09:08:02.074Z,95169.09
2019-06-08T09:10:31.009Z,95181.16
2019-06-08T09:13:04.211Z,95201.81
2019-06-08T09:15:33.698Z,95179.05
2019-06-08T09:18:04.215Z,95175.67
2019-06-08T09:20:37.899Z,95184.38
2019-06-08T09:23:14.965Z,95172.80
2019-06-08T09:25:40.550Z,95184.75
2019-06-08T09:28:12.241Z,95169.22
2019-06-08T09:30:42.887Z,95168.75
2019-06-08T09:33:13.417Z,95173.80
2019-06-08T09:35:43.965Z,95168.56
2019-06-08T09:38:14.268Z,95176.13
2019-06-08T09:40:44.640Z,95183.31
2019-06-08T09:43:15.404Z,95179.52
2019-06-08T09:45:48.135Z,95169.37
2019-06-08T09:48:18.376Z,95178.67
2019-06-08T09:50:49.150Z,95171.38
2019-06-08T09:53:28.422Z,95164.98
2019-06-08T09:55:53.307Z,95158.95
2019-06-08T09:58:24.360Z,95165.86
2019-06-08T10:00:57.203Z,95170.30
2019-06-08T10:03:30.751Z,95162.27
2019-06-08T10:06:05.500Z,95168.82
2019-06-08T10:08:32.411Z,95152.56
2019-06-08T10:11:05.649Z,95165.19
2019-06-08T10:13:34.745Z,95163.67
2019-06-08T10:16:09.305Z,95164.88
2019-06-08T10:18:38.631Z,95166.98
2019-06-08T10:21:09.587Z,95158.21
2019-06-08T10:23:41.535Z,95170.83
2019-06-08T10:26:12.684Z,95166.80
2019-06-08T10:28:42.952Z,95166.83
2019-06-08T10:31:13.567Z,95163.29
2019-06-08T10:33:48.019Z,95167.28
2019-06-08T10:36:18.268Z,95156.93
2019-06-08T10:38:48.926Z,95154.48
2019-06-08T10:41:21.804Z,95173.55
2019-06-08T10:43:51.708Z,95151.20
2019-06-08T10:46:22.297Z,95148.09
2019-06-08T10:48:52.619Z,95139.61
2019-06-08T10:51:23.296Z,95136.78
2019-06-08T10:53:54.054Z,95144.50
2019-06-08T10:56:24.283Z,95143.69
2019-06-08T10:58:55.191Z,95129.22
2019-06-08T11:01:28.120Z,95132.39
2019-06-08T11:03:58.423Z,95121.91
2019-06-08T11:06:29.628Z,95112.06
2019-06-08T11:09:03.730Z,95114.03
2019-06-08T11:11:33.504Z,95119.50
2019-06-08T11:14:06.222Z,95112.84
2019-06-08T11:16:38.562Z,95103.64
2019-06-08T11:19:12.896Z,95108.81
2019-06-08T11:21:41.336Z,95111.47
2019-06-08T11:24:21.626Z,95103.38
2019-06-08T11:26:47.708Z,95112.52
2019-06-08T11:29:18.783Z,95103.66
2019-06-08T11:31:50.936Z,95114.33
2019-06-08T11:34:21.896Z,95109.72
2019-06-08T11:36:52.605Z,95096.45
2019-06-08T11:39:22.949Z,95095.42
2019-06-08T11:41:53.465Z,95094.45
2019-06-08T11:44:23.920Z,95093.06
2019-06-08T11:46:54.530Z,95101.64
2019-06-08T11:49:27.720Z,95107.52
2019-06-08T11:51:58.357Z,95099.52
2019-06-08T11:54:36.859Z,95103.69
2019-06-08T11:57:01.155Z,95103.47
2019-06-08T11:59:32.692Z,95101.48
2019-06-08T12:02:03.546Z,95108.66
2019-06-08T12:04:34.263Z,95092.97
2019-06-08T12:07:04.750Z,95094.81
2019-06-08T12:09:35.046Z,95104.81
2019-06-08T12:12:09.003Z,95091.94
2019-06-08T12:14:40.535Z,95087.77
2019-06-08T12:17:15.386Z,95083.95
2019-06-08T12:19:42.622Z,95084.71
2019-06-08T12:22:14.221Z,95073.48
2019-06-08T12:24:45.150Z,95081.23
2019-06-08T12:27:29.584Z,95092.37
2019-06-08T12:29:50.231Z,95074.40
2019-06-08T12:32:19.726Z,95076.45
2019-06-08T12:34:50.211Z,95085.95
2019-06-08T12:37:22.365Z,95069.94
2019-06-08T12:39:52.981Z,95076.66
2019-06-08T12:42:25.047Z,95075.24
2019-06-08T12:44:55.605Z,95076.47
2019-06-08T12:47:29.258Z,95082.60
2019-06-08T12:49:58.572Z,95092.81
2019-06-08T12:52:29.855Z,95081.19
2019-06-08T12:55:06.778Z,95080.22
2019-06-08T12:57:32.637Z,95076.01
2019-06-08T13:00:03.158Z,95083.45
2019-06-08T13:02:33.760Z,95086.41
2019-06-08T13:05:04.639Z,95071.67
2019-06-08T13:07:35.088Z,95073.17
2019-06-08T13:10:06.372Z,95071.11
2019-06-08T13:12:40.642Z,95063.41
2019-06-08T13:15:10.085Z,95076.86
2019-06-08T13:17:41.127Z,95068.69
2019-06-08T13:20:20.518Z,95064.20
2019-06-08T13:22:49.608Z,95069.97
2019-06-08T13:25:36.332Z,95065.90
2019-06-08T13:27:52.048Z,95057.55
2019-06-08T13:30:26.036Z,95072.36
2019-06-08T13:32:54.651Z,95064.47
2019-06-08T13:35:27.385Z,95066.81
2019-06-08T13:37:57.704Z,95052.55
2019-06-08T13:40:28.096Z,95067.52
2019-06-08T13:42:58.413Z,95058.64
2019-06-08T13:45:29.142Z,95053.30
2019-06-08T13:47:59.697Z,95057.22
2019-06-08T13:50:29.989Z,95049.38
2019-06-08T13:53:01.790Z,95051.47
2019-06-08T13:55:48.105Z,95062.09
2019-06-08T13:58:05.227Z,95064.41
2019-06-08T14:00:38.555Z,95036.95
2019-06-08T14:03:09.143Z,95040.23
2019-06-08T14:05:39.713Z,95035.38
2019-06-08T14:08:10.988Z,95048.17
2019-06-08T14:10:42.014Z,95055.84
2019-06-08T14:13:12.788Z,95035.70
2019-06-08T14:15:43.984Z,95054.84
2019-06-08T14:18:17.912Z,95051.91
2019-06-08T14:20:48.377Z,95050.97
2019-06-08T14:23:21.083Z,95052.27
2019-06-08T14:25:56.742Z,95057.34
2019-06-08T14:28:24.450Z,95043.34
2019-06-08T14:30:55.180Z,95046.50
2019-06-08T14:33:29.153Z,95058.27
2019-06-08T14:35:59.188Z,95054.30
2019-06-08T14:38:38.316Z,95057.21
2019-06-08T14:41:02.094Z,95042.45
2019-06-08T14:43:32.395Z,95044.48
2019-06-08T14:46:02.982Z,95057.69
2019-06-08T14:48:34.015Z,95043.43
2019-06-08T14:51:04.444Z,95029.98
2019-06-08T14:53:35.089Z,95035.31
2019-06-08T14:56:08.757Z,95024.60
2019-06-08T14:58:38.566Z,95040.92
2019-06-08T15:01:09.209Z,95036.03
2019-06-08T15:03:39.528Z,95033.41
2019-06-08T15:06:10.430Z,95034.42
2019-06-08T15:08:40.819Z,95039.51
2019-06-08T15:11:11.131Z,95042.15
2019-06-08T15:13:42.082Z,95032.62
2019-06-08T15:16:12.607Z,95045.97
2019-06-08T15:18:42.885Z,95047.23
2019-06-08T15:21:13.547Z,95037.88
2019-06-08T15:23:44.105Z,95045.47
2019-06-08T15:26:24.014Z,95035.87
2019-06-08T15:28:48.513Z,95037.16
2019-06-08T15:31:19.447Z,95029.19
2019-06-08T15:33:49.960Z,95036.12
2019-06-08T15:36:22.091Z,95033.77
2019-06-08T15:38:52.618Z,95034.73
2019-06-08T15:41:24.551Z,95028.98
2019-06-08T15:43:57.508Z,95034.98
2019-06-08T15:46:28.309Z,95016.26
2019-06-08T15:48:58.842Z,95033.20
2019-06-08T15:51:33.890Z,95029.31
2019-06-08T15:54:01.549Z,95033.88
2019-06-08T15:56:43.168Z,95035.34
2019-06-08T15:59:03.992Z,95028.91
2019-06-08T16:01:34.291Z,95036.16
2019-06-08T16:04:04.957Z,95030.39
2019-06-08T16:06:35.276Z,95028.96
2019-06-08T16:09:08.226Z,95028.44
2019-06-08T16:11:38.901Z,95031.02
2019-06-08T16:14:09.186Z,95031.97
2019-06-08T16:16:39.473Z,95033.00
2019-06-08T16:19:10.227Z,95039.95
2019-06-08T16:21:40.538Z,95043.09
2019-06-08T16:24:10.812Z,94999.05
2019-06-08T16:26:52.671Z,95045.58
2019-06-08T16:29:13.844Z,95048.95
2019-06-08T16:31:44.263Z,95045.69
2019-06-08T16:34:14.843Z,95043.59
2019-06-08T16:36:45.289Z,95042.86
2019-06-08T16:39:16.035Z,94850.83
2019-06-08T16:41:46.446Z,95044.44
2019-06-08T16:44:16.735Z,95038.09
2019-06-08T16:46:47.668Z,95042.09
2019-06-08T16:49:18.228Z,95036.95
2019-06-08T16:51:48.850Z,95044.45
2019-06-08T16:54:19.697Z,95035.59
2019-06-08T16:56:50.053Z,95047.11
2019-06-08T16:59:20.461Z,95053.16
2019-06-08T17:01:51.158Z,95054.27
2019-06-08T17:04:22.804Z,95053.86
2019-06-08T17:06:53.141Z,95058.59
2019-06-08T17:09:23.631Z,95066.06
2019-06-08T17:11:54.621Z,95068.23
2019-06-08T17:14:25.524Z,95074.19
2019-06-08T17:16:56.167Z,95072.11
2019-06-08T17:19:26.453Z,95072.48
2019-06-08T17:21:57.147Z,95066.97
2019-06-08T17:24:27.522Z,95074.70
2019-06-08T17:26:57.829Z,95074.73
2019-06-08T17:29:28.188Z,95076.06
2019-06-08T17:31:58.857Z,95068.16
2019-06-08T17:34:29.177Z,95062.51
2019-06-08T17:37:00.562Z,95069.77
2019-06-08T17:39:31.745Z,95062.75
2019-06-08T17:42:02.693Z,95066.88
2019-06-08T17:44:34.860Z,95052.36
2019-06-08T17:47:05.575Z,95070.30
2019-06-08T17:49:36.771Z,95062.39
2019-06-08T17:52:07.591Z,95058.54
2019-06-08T17:54:38.984Z,95064.06
2019-06-08T17:57:09.354Z,95058.25
2019-06-08T17:59:41.672Z,95059.45
2019-06-08T18:02:15.502Z,95061.14
2019-06-08T18:04:44.482Z,95062.63
2019-06-08T18:07:17.143Z,95059.00
2019-06-08T18:09:48.482Z,95066.84
2019-06-08T18:12:19.141Z,95066.32
2019-06-08T18:14:49.431Z,95073.86
2019-06-08T18:17:19.757Z,95067.05
2019-06-08T18:19:50.412Z,95070.78
2019-06-08T18:22:20.751Z,95070.94
2019-06-08T18:24:51.057Z,95080.91
2019-06-08T18:27:21.750Z,95072.42
2019-06-08T18:29:52.213Z,95079.39
2019-06-08T18:32:22.516Z,95083.74
2019-06-08T18:34:53.007Z,95089.11
2019-06-08T18:37:23.860Z,95095.09
2019-06-08T18:42:23.157Z,95112.80
2019-06-08T18:44:53.886Z,95123.65
2019-06-08T18:47:24.479Z,95125.30
2019-06-08T18:49:57.300Z,95133.80
2019-06-08T18:52:28.222Z,95141.02
2019-06-08T18:54:58.555Z,95154.78
2019-06-08T18:57:28.974Z,95163.03
2019-06-08T18:59:59.746Z,95166.11
2019-06-08T19:02:30.416Z,95169.41
2019-06-08T19:05:00.687Z,95172.24
2019-06-08T19:07:32.540Z,95167.21
2019-06-08T19:10:07.542Z,95172.98
2019-06-08T19:12:39.969Z,95176.73
2019-06-08T19:15:11.444Z,95175.58
2019-06-08T19:17:47.244Z,95181.00
2019-06-08T19:20:17.307Z,95177.16
2019-06-08T19:22:53.918Z,95174.01
2019-06-08T19:25:19.637Z,95166.78
2019-06-08T19:27:53.198Z,95176.66
2019-06-08T19:30:24.882Z,95176.89
2019-06-08T19:32:54.582Z,95191.00
2019-06-08T19:35:27.358Z,95188.73
2019-06-08T19:37:58.347Z,95191.95
2019-06-08T19:40:28.892Z,95197.91
2019-06-08T19:43:01.520Z,95194.84
2019-06-08T19:45:32.475Z,95196.20
2019-06-08T19:48:02.746Z,95196.44
2019-06-08T19:50:33.391Z,95193.36
2019-06-08T19:53:03.671Z,95197.97
2019-06-08T19:55:34.467Z,95202.52
2019-06-08T19:58:05.075Z,95205.94
2019-06-08T20:00:35.347Z,95206.91
2019-06-08T20:03:07.643Z,95199.76
2019-06-08T20:05:38.541Z,95202.18
2019-06-08T20:08:11.932Z,95198.33
2019-06-08T20:10:43.033Z,95201.39
2019-06-08T20:13:14.772Z,95199.66
2019-06-08T20:15:52.341Z,95197.78
2019-06-08T20:18:17.385Z,95204.05
2019-06-08T20:20:50.547Z,95204.45
2019-06-08T20:23:20.853Z,95206.00
2019-06-08T20:25:52.045Z,95205.59
2019-06-08T20:28:22.281Z,95210.41
2019-06-08T20:30:52.732Z,95208.48
2019-06-08T20:33:23.430Z,95206.75
2019-06-08T20:35:53.939Z,95204.22
2019-06-08T20:38:35.109Z,95212.23
2019-06-08T20:40:57.994Z,95205.73
2019-06-08T20:43:28.443Z,95198.55
2019-06-08T20:45:58.802Z,95195.84
2019-06-08T20:48:29.451Z,95200.20
2019-06-08T20:50:59.833Z,95194.94
2019-06-08T20:53:30.202Z,95194.55
2019-06-08T20:56:00.501Z,95190.88
2019-06-08T20:58:30.815Z,95202.88
2019-06-08T21:01:01.559Z,95201.45
2019-06-08T21:03:31.871Z,95202.86
2019-06-08T21:06:02.216Z,95204.78
2019-06-08T21:08:33.025Z,95204.95
2019-06-08T21:11:03.558Z,95207.87
2019-06-08T21:13:33.866Z,95221.19
2019-06-08T21:16:04.616Z,95223.50
2019-06-08T21:18:35.016Z,95224.70
2019-06-08T21:21:05.313Z,95226.46
2019-06-08T21:23:35.735Z,95226.51
2019-06-08T21:26:07.970Z,95217.31
2019-06-08T21:28:38.646Z,95223.63
2019-06-08T21:31:09.295Z,95214.84
2019-06-08T21:33:39.583Z,95204.75
2019-06-08T21:36:10.269Z,95217.55
2019-06-08T21:38:40.944Z,95213.56
2019-06-08T21:42:04.985Z,95217.37
2019-06-08T21:44:37.203Z,95216.28
2019-06-08T21:47:08.045Z,95218.53
2019-06-08T21:49:38.558Z,95211.03
2019-06-08T21:52:08.975Z,95214.91
2019-06-08T21:54:39.712Z,95215.20
2019-06-08T21:57:10.020Z,95203.80
2019-06-08T21:59:41.275Z,95199.92
2019-06-08T22:02:11.990Z,95200.30
2019-06-08T22:04:42.577Z,95198.81
2019-06-08T22:07:13.341Z,95198.63
2019-06-08T22:12:50.774Z,95199.83
2019-06-08T22:15:22.603Z,95195.59
2019-06-08T22:17:53.153Z,95189.67
2019-06-08T22:20:23.491Z,95199.13
2019-06-08T22:22:55.121Z,95199.80
2019-06-08T22:25:27.718Z,95206.72
2019-06-08T22:27:58.378Z,95201.11
2019-06-08T22:30:39.306Z,95192.64
2019-06-08T22:33:01.755Z,95194.38
2019-06-08T22:35:32.582Z,95194.24
2019-06-08T22:38:03.336Z,95196.58
2019-06-08T22:40:33.684Z,95191.09
2019-06-08T22:43:04.417Z,95198.02
2019-06-08T22:45:37.303Z,95194.28
2019-06-08T22:48:08.253Z,95196.04
2019-06-08T22:50:39.720Z,95193.49
2019-06-08T22:53:10.312Z,95193.57
2019-06-08T22:55:40.616Z,95199.78
2019-06-08T22:58:11.116Z,95205.88
2019-06-08T23:00:52.329Z,95201.90
2019-06-08T23:03:13.637Z,95200.75
2019-06-08T23:05:44.060Z,95198.27
2019-06-08T23:08:17.385Z,95208.14
2019-06-08T23:10:48.290Z,95205.94
2019-06-08T23:13:18.772Z,95215.67
2019-06-08T23:15:49.360Z,95210.61
2019-06-08T23:18:19.715Z,95212.48
2019-06-08T23:20:49.980Z,95219.27
2019-06-08T23:23:20.583Z,95217.44
2019-06-08T23:25:51.071Z,95216.36
2019-06-08T23:28:21.462Z,95221.34
2019-06-08T23:31:04.948Z,95207.74
2019-06-08T23:33:24.529Z,95200.63
2019-06-08T23:36:32.301Z,95205.59
2019-06-08T23:38:27.916Z,95214.06
2019-06-08T23:41:00.810Z,95204.91
2019-06-08T23:43:31.605Z,95193.91
2019-06-08T23:46:02.419Z,95187.27
2019-06-08T23:48:33.888Z,95189.17
2019-06-08T23:51:04.626Z,95188.73
2019-06-08T23:53:35.269Z,95184.40
2019-06-08T23:56:08.443Z,95193.16
2019-06-08T23:58:37.772Z,95199.20
